createdAt,value
2023-02-11T00:01:32.597Z,4.40
2023-02-11T00:04:00.850Z,4.40
2023-02-11T00:06:29.637Z,4.40
2023-02-11T00:08:57.579Z,4.40
2023-02-11T00:11:30.566Z,4.40
2023-02-11T00:14:00.911Z,4.40
2023-02-11T00:16:29.666Z,4.40
2023-02-11T00:18:57.169Z,4.40
2023-02-11T00:21:26.822Z,4.30
2023-02-11T00:23:55.027Z,4.40
2023-02-11T00:26:29.903Z,4.40
2023-02-11T00:28:57.244Z,4.30
2023-02-11T00:31:26.065Z,4.20
2023-02-11T00:33:53.646Z,4.20
2023-02-11T00:36:27.583Z,4.10
2023-02-11T00:38:56.342Z,4.00
2023-02-11T00:41:23.747Z,4.00
2023-02-11T00:43:52.571Z,3.90
2023-02-11T00:46:20.592Z,3.90
2023-02-11T00:48:47.981Z,3.80
2023-02-11T00:51:15.685Z,3.70
2023-02-11T00:53:43.258Z,3.70
2023-02-11T00:56:10.671Z,3.70
2023-02-11T00:58:38.364Z,3.80
2023-02-11T01:01:05.646Z,3.80
2023-02-11T01:03:32.965Z,3.70
2023-02-11T01:06:00.287Z,3.60
2023-02-11T01:08:27.916Z,3.60
2023-02-11T01:11:04.831Z,3.50
2023-02-11T01:13:34.610Z,3.60
2023-02-11T01:16:02.237Z,3.50
2023-02-11T01:18:29.578Z,3.60
2023-02-11T01:20:56.676Z,3.60
2023-02-11T01:23:23.941Z,3.70
2023-02-11T01:25:52.024Z,3.80
2023-02-11T01:28:22.939Z,3.90
2023-02-11T01:30:50.256Z,4.00
2023-02-11T01:33:18.221Z,4.00
2023-02-11T01:35:45.968Z,4.00
2023-02-11T01:38:18.782Z,4.10
2023-02-11T01:41:00.153Z,4.20
2023-02-11T01:43:32.511Z,4.20
2023-02-11T01:46:31.185Z,4.30
2023-02-11T01:49:11.221Z,4.40
2023-02-11T01:51:45.435Z,4.40
2023-02-11T01:54:36.083Z,4.50
2023-02-11T01:57:23.209Z,4.50
2023-02-11T02:00:24.204Z,4.50
2023-02-11T02:03:15.640Z,4.50
2023-02-11T02:06:08.149Z,4.60
2023-02-11T02:08:50.275Z,4.50
2023-02-11T02:11:17.456Z,4.60
2023-02-11T02:13:45.322Z,4.60
2023-02-11T02:16:17.034Z,4.70
2023-02-11T02:19:37.223Z,4.60
2023-02-11T02:22:38.221Z,4.60
2023-02-11T02:25:23.180Z,4.60
2023-02-11T02:28:43.231Z,4.70
2023-02-11T02:32:02.337Z,4.70
2023-02-11T02:34:42.331Z,4.80
2023-02-11T02:37:20.954Z,4.80
2023-02-11T02:39:50.460Z,4.80
2023-02-11T02:42:20.440Z,4.80
2023-02-11T02:44:52.362Z,4.80
2023-02-11T02:47:19.895Z,4.90
2023-02-11T02:49:47.147Z,4.80
2023-02-11T02:53:02.435Z,4.80
2023-02-11T02:55:29.516Z,4.90
2023-02-11T02:58:53.184Z,4.90
2023-02-11T03:01:43.127Z,4.90
2023-02-11T03:04:36.141Z,4.90
2023-02-11T03:07:28.124Z,4.90
2023-02-11T03:10:14.373Z,5.00
2023-02-11T03:12:44.524Z,5.00
2023-02-11T03:15:13.239Z,5.00
2023-02-11T03:17:46.566Z,5.00
2023-02-11T03:20:17.921Z,5.10
2023-02-11T03:23:14.874Z,5.10
2023-02-11T03:25:50.381Z,5.00
2023-02-11T03:28:45.319Z,5.00
2023-02-11T03:31:33.250Z,5.10
2023-02-11T03:34:19.850Z,5.00
2023-02-11T03:37:22.561Z,5.00
2023-02-11T03:40:19.453Z,5.10
2023-02-11T03:43:00.490Z,5.10
2023-02-11T03:45:28.972Z,5.10
2023-02-11T03:48:12.031Z,5.10
2023-02-11T03:50:40.958Z,5.10
2023-02-11T03:53:09.074Z,5.10
2023-02-11T03:55:40.446Z,5.10
2023-02-11T03:58:08.566Z,5.00
2023-02-11T04:00:41.901Z,5.10
2023-02-11T04:03:11.234Z,5.10
2023-02-11T04:05:39.317Z,5.20
2023-02-11T04:08:06.732Z,5.20
2023-02-11T04:10:33.852Z,5.10
2023-02-11T04:13:00.992Z,5.10
2023-02-11T04:15:28.320Z,5.10
2023-02-11T04:17:55.436Z,5.10
2023-02-11T04:20:22.525Z,5.10
2023-02-11T04:22:49.622Z,5.10
2023-02-11T04:25:16.945Z,5.10
2023-02-11T04:27:44.019Z,5.10
2023-02-11T04:30:11.766Z,5.10
2023-02-11T04:32:38.965Z,5.20
2023-02-11T04:35:06.863Z,5.10
2023-02-11T04:37:34.047Z,5.10
2023-02-11T04:40:01.210Z,5.10
2023-02-11T04:42:28.463Z,5.10
2023-02-11T04:44:55.603Z,5.10
2023-02-11T04:47:22.894Z,5.20
2023-02-11T04:49:50.033Z,5.20
2023-02-11T04:52:17.174Z,5.20
2023-02-11T04:54:44.600Z,5.20
2023-02-11T04:57:11.681Z,5.20
2023-02-11T04:59:38.901Z,5.20
2023-02-11T05:02:05.965Z,5.10
2023-02-11T05:04:33.170Z,5.10
2023-02-11T05:07:00.263Z,5.20
2023-02-11T05:09:27.373Z,5.20
2023-02-11T05:11:54.525Z,5.30
2023-02-11T05:14:21.729Z,5.20
2023-02-11T05:16:48.840Z,5.20
2023-02-11T05:19:16.008Z,5.30
2023-02-11T05:21:56.671Z,5.30
2023-02-11T05:24:27.575Z,5.20
2023-02-11T05:26:54.690Z,5.30
2023-02-11T05:29:21.745Z,5.20
2023-02-11T05:31:49.042Z,5.20
2023-02-11T05:34:16.216Z,5.20
2023-02-11T05:36:43.308Z,5.20
2023-02-11T05:39:10.483Z,5.20
2023-02-11T05:41:38.289Z,5.20
2023-02-11T05:44:05.461Z,5.20
2023-02-11T05:46:32.649Z,5.20
2023-02-11T05:48:59.991Z,5.20
2023-02-11T05:51:27.247Z,5.20
2023-02-11T05:53:54.562Z,5.30
2023-02-11T05:56:21.608Z,5.20
2023-02-11T05:58:48.707Z,5.20
2023-02-11T06:01:15.815Z,5.20
2023-02-11T06:03:43.120Z,5.20
2023-02-11T06:06:12.348Z,5.20
2023-02-11T06:08:39.801Z,5.20
2023-02-11T06:11:07.363Z,5.20
2023-02-11T06:13:35.643Z,5.20
2023-02-11T06:16:03.589Z,5.20
2023-02-11T06:18:30.839Z,5.20
2023-02-11T06:20:57.931Z,5.20
2023-02-11T06:23:25.194Z,5.30
2023-02-11T06:25:53.577Z,5.30
2023-02-11T06:28:20.895Z,5.30
2023-02-11T06:30:48.156Z,5.30
2023-02-11T06:33:16.100Z,5.30
2023-02-11T06:35:43.234Z,5.30
2023-02-11T06:38:10.366Z,5.40
2023-02-11T06:40:37.470Z,5.30
2023-02-11T06:43:04.538Z,5.30
2023-02-11T06:45:31.717Z,5.30
2023-02-11T06:47:58.796Z,5.30
2023-02-11T06:50:25.892Z,5.30
2023-02-11T06:52:53.067Z,5.30
2023-02-11T06:55:20.229Z,5.30
2023-02-11T06:57:47.354Z,5.40
2023-02-11T07:00:14.994Z,5.40
2023-02-11T07:02:42.244Z,5.30
2023-02-11T07:05:10.109Z,5.30
2023-02-11T07:07:37.551Z,5.30
2023-02-11T07:10:05.912Z,5.30
2023-02-11T07:12:33.190Z,5.30
2023-02-11T07:15:00.405Z,5.40
2023-02-11T07:17:27.498Z,5.40
2023-02-11T07:19:54.697Z,5.30
2023-02-11T07:22:21.787Z,5.30
2023-02-11T07:24:48.920Z,5.30
2023-02-11T07:27:16.100Z,5.30
2023-02-11T07:29:43.608Z,5.40
2023-02-11T07:32:10.807Z,5.40
2023-02-11T07:34:38.159Z,5.50
2023-02-11T07:37:05.408Z,5.50
2023-02-11T07:39:32.740Z,5.50
2023-02-11T07:42:00.234Z,5.50
2023-02-11T07:44:27.993Z,5.50
2023-02-11T07:46:55.171Z,5.50
2023-02-11T07:49:22.299Z,5.60
2023-02-11T07:51:51.324Z,5.60
2023-02-11T07:54:18.903Z,5.60
2023-02-11T07:56:46.076Z,5.60
2023-02-11T07:59:13.380Z,5.60
2023-02-11T08:01:40.644Z,5.60
2023-02-11T08:04:07.804Z,5.60
2023-02-11T08:06:35.961Z,5.60
2023-02-11T08:09:09.393Z,5.70
2023-02-11T08:11:36.961Z,5.60
2023-02-11T08:14:04.216Z,5.60
2023-02-11T08:16:34.875Z,5.70
2023-02-11T08:19:06.500Z,5.70
2023-02-11T08:21:33.792Z,5.70
2023-02-11T08:24:03.942Z,5.80
2023-02-11T08:26:34.730Z,5.80
2023-02-11T08:29:08.018Z,5.90
2023-02-11T08:31:39.276Z,5.90
2023-02-11T08:34:07.666Z,5.90
2023-02-11T08:36:37.776Z,5.90
2023-02-11T08:39:19.106Z,5.90
2023-02-11T08:41:53.248Z,5.90
2023-02-11T08:44:22.524Z,5.80
2023-02-11T08:46:51.473Z,5.80
2023-02-11T08:49:19.547Z,5.90
2023-02-11T08:51:47.242Z,5.90
2023-02-11T08:54:15.382Z,5.90
2023-02-11T08:56:43.344Z,5.80
2023-02-11T08:59:14.835Z,5.80
2023-02-11T09:01:42.244Z,5.80
2023-02-11T09:04:10.708Z,5.80
2023-02-11T09:06:37.793Z,5.80
2023-02-11T09:09:05.196Z,5.80
2023-02-11T09:11:35.585Z,5.80
2023-02-11T09:14:05.058Z,5.90
2023-02-11T09:16:36.062Z,5.90
2023-02-11T09:19:05.350Z,5.90
2023-02-11T09:21:32.586Z,5.80
2023-02-11T09:23:59.916Z,5.90
2023-02-11T09:26:31.149Z,5.90
2023-02-11T09:28:59.074Z,6.00
2023-02-11T09:31:28.492Z,5.90
2023-02-11T09:34:02.263Z,5.90
2023-02-11T09:36:37.655Z,6.00
2023-02-11T09:39:08.527Z,6.00
2023-02-11T09:42:05.413Z,6.10
2023-02-11T09:44:35.634Z,6.10
2023-02-11T09:47:38.677Z,6.00
2023-02-11T09:50:23.680Z,6.20
2023-02-11T09:53:12.765Z,6.20
2023-02-11T09:55:43.992Z,6.20
2023-02-11T09:58:36.780Z,6.30
2023-02-11T10:01:07.898Z,6.30
2023-02-11T10:03:44.857Z,6.30
2023-02-11T10:06:55.874Z,6.30
2023-02-11T10:09:44.939Z,6.40
2023-02-11T10:12:59.030Z,6.40
2023-02-11T10:15:49.819Z,6.50
2023-02-11T10:18:47.104Z,6.60
2023-02-11T10:21:50.707Z,6.60
2023-02-11T10:24:19.135Z,6.50
2023-02-11T10:26:47.028Z,6.60
2023-02-11T10:29:39.089Z,6.70
2023-02-11T10:32:39.698Z,6.70
2023-02-11T10:35:21.240Z,6.80
2023-02-11T10:37:49.153Z,6.70
2023-02-11T10:40:24.641Z,6.70
2023-02-11T10:42:55.996Z,6.70
2023-02-11T10:45:36.829Z,6.80
2023-02-11T10:48:06.694Z,6.80
2023-02-11T10:50:35.470Z,6.80
2023-02-11T10:53:17.532Z,6.90
2023-02-11T10:55:54.967Z,6.90
2023-02-11T10:58:31.050Z,6.90
2023-02-11T11:01:00.221Z,6.90
2023-02-11T11:03:40.681Z,7.00
2023-02-11T11:06:09.893Z,6.90
2023-02-11T11:08:50.232Z,6.90
2023-02-11T11:11:23.941Z,6.90
2023-02-11T11:13:58.319Z,6.90
2023-02-11T11:16:34.165Z,6.90
2023-02-11T11:19:07.549Z,6.90
2023-02-11T11:21:55.814Z,6.90
2023-02-11T11:24:34.574Z,6.90
2023-02-11T11:27:04.639Z,7.00
2023-02-11T11:29:52.149Z,7.00
2023-02-11T11:32:32.607Z,7.00
2023-02-11T11:35:12.863Z,7.00
2023-02-11T11:37:40.104Z,7.10
2023-02-11T11:40:27.538Z,7.10
2023-02-11T11:43:12.602Z,7.20
2023-02-11T11:45:52.568Z,7.20
2023-02-11T11:48:28.788Z,7.30
2023-02-11T11:51:04.886Z,7.30
2023-02-11T11:53:37.687Z,7.20
2023-02-11T11:56:23.363Z,7.20
2023-02-11T11:58:51.076Z,7.20
2023-02-11T12:01:44.065Z,7.20
2023-02-11T12:04:16.995Z,7.20
2023-02-11T12:06:46.888Z,7.20
2023-02-11T12:09:35.444Z,7.30
2023-02-11T12:12:32.334Z,7.30
2023-02-11T12:15:11.355Z,7.30
2023-02-11T12:18:04.532Z,7.40
2023-02-11T12:20:43.529Z,7.30
2023-02-11T12:23:25.515Z,7.30
2023-02-11T12:26:18.280Z,7.20
2023-02-11T12:29:03.589Z,7.20
2023-02-11T12:32:17.941Z,7.20
2023-02-11T12:35:12.818Z,7.20
2023-02-11T12:37:58.968Z,7.30
2023-02-11T12:41:11.664Z,7.30
2023-02-11T12:43:44.192Z,7.30
2023-02-11T12:46:23.360Z,7.30
2023-02-11T12:49:05.831Z,7.40
2023-02-11T12:52:23.780Z,7.50
2023-02-11T12:55:29.948Z,7.40
2023-02-11T12:58:01.737Z,7.50
2023-02-11T13:01:04.749Z,7.50
2023-02-11T13:03:41.649Z,7.60
2023-02-11T13:06:16.236Z,7.70
2023-02-11T13:08:49.671Z,7.60
2023-02-11T13:11:41.372Z,7.60
2023-02-11T13:14:21.611Z,7.70
2023-02-11T13:16:51.038Z,7.60
2023-02-11T13:19:24.343Z,7.70
2023-02-11T13:22:19.062Z,7.70
2023-02-11T13:24:59.680Z,7.80
2023-02-11T13:27:40.941Z,7.60
2023-02-11T13:30:33.824Z,7.70
2023-02-11T13:33:01.081Z,7.80
2023-02-11T13:35:36.730Z,7.90
2023-02-11T13:38:17.334Z,7.90
2023-02-11T13:40:45.711Z,7.90
2023-02-11T13:43:34.214Z,7.90
2023-02-11T13:46:05.798Z,7.80
2023-02-11T13:48:45.975Z,7.90
2023-02-11T13:51:19.470Z,7.90
2023-02-11T13:53:51.490Z,7.90
2023-02-11T13:56:40.253Z,7.90
2023-02-11T13:59:33.835Z,7.80
2023-02-11T14:02:39.697Z,7.90
2023-02-11T14:05:25.132Z,7.80
2023-02-11T14:08:28.767Z,7.80
2023-02-11T14:11:33.047Z,7.80
2023-02-11T14:14:12.110Z,7.80
2023-02-11T14:16:59.619Z,7.90
2023-02-11T14:19:44.307Z,7.80
2023-02-11T14:22:48.033Z,7.90
2023-02-11T14:25:26.206Z,7.80
2023-02-11T14:28:08.324Z,7.80
2023-02-11T14:30:46.471Z,7.90
2023-02-11T14:33:40.787Z,7.90
2023-02-11T14:36:35.473Z,7.90
2023-02-11T14:39:35.523Z,7.90
2023-02-11T14:42:03.649Z,7.90
2023-02-11T14:44:33.218Z,7.90
2023-02-11T14:47:00.723Z,7.90
2023-02-11T14:49:34.039Z,7.90
2023-02-11T14:52:43.575Z,7.90
2023-02-11T14:55:39.560Z,7.90
2023-02-11T14:58:30.005Z,7.90
2023-02-11T15:01:33.912Z,7.90
2023-02-11T15:04:22.159Z,7.90
2023-02-11T15:06:49.788Z,7.90
2023-02-11T15:09:27.995Z,7.70
2023-02-11T15:11:57.825Z,7.80
2023-02-11T15:14:31.903Z,7.80
2023-02-11T15:17:04.524Z,7.80
2023-02-11T15:19:36.507Z,7.80
2023-02-11T15:22:22.110Z,7.80
2023-02-11T15:25:11.121Z,7.90
2023-02-11T15:27:41.119Z,7.90
2023-02-11T15:30:34.364Z,7.80
2023-02-11T15:33:06.066Z,7.80
2023-02-11T15:35:38.524Z,7.80
2023-02-11T15:38:06.275Z,7.80
2023-02-11T15:40:37.470Z,7.90
2023-02-11T15:43:10.326Z,7.90
2023-02-11T15:45:55.149Z,7.90
2023-02-11T15:48:36.383Z,7.90
2023-02-11T15:51:13.776Z,7.90
2023-02-11T15:53:43.388Z,7.90
2023-02-11T15:56:46.023Z,7.90
2023-02-11T15:59:26.725Z,7.90
2023-02-11T16:01:55.490Z,7.90
2023-02-11T16:04:25.936Z,7.80
2023-02-11T16:06:55.221Z,7.80
2023-02-11T16:09:31.715Z,7.80
2023-02-11T16:12:03.679Z,7.80
2023-02-11T16:14:42.237Z,7.70
2023-02-11T16:17:22.398Z,7.80
2023-02-11T16:19:51.211Z,7.80
2023-02-11T16:22:30.307Z,7.70
2023-02-11T16:24:59.686Z,7.70
2023-02-11T16:27:51.455Z,7.70
2023-02-11T16:30:40.588Z,7.70
2023-02-11T16:33:13.402Z,7.60
2023-02-11T16:35:50.140Z,7.70
2023-02-11T16:38:18.409Z,7.70
2023-02-11T16:40:50.124Z,7.70
2023-02-11T16:43:33.487Z,7.60
2023-02-11T16:46:00.755Z,7.60
2023-02-11T16:48:28.020Z,7.60
2023-02-11T16:50:55.698Z,7.60
2023-02-11T16:53:25.054Z,7.60
2023-02-11T16:55:54.386Z,7.60
2023-02-11T16:58:21.513Z,7.60
2023-02-11T17:00:49.026Z,7.50
2023-02-11T17:03:29.836Z,7.50
2023-02-11T17:05:57.283Z,7.50
2023-02-11T17:08:24.467Z,7.50
2023-02-11T17:10:52.025Z,7.50
2023-02-11T17:13:19.519Z,7.50
2023-02-11T17:15:46.873Z,7.50
2023-02-11T17:18:17.066Z,7.50
2023-02-11T17:20:44.319Z,7.50
2023-02-11T17:23:14.359Z,7.50
2023-02-11T17:25:41.628Z,7.50
2023-02-11T17:28:12.142Z,7.50
2023-02-11T17:30:43.557Z,7.50
2023-02-11T17:33:10.825Z,7.50
2023-02-11T17:35:40.543Z,7.50
2023-02-11T17:38:07.819Z,7.50
2023-02-11T17:40:35.041Z,7.40
2023-02-11T17:43:02.497Z,7.40
2023-02-11T17:45:30.082Z,7.40
2023-02-11T17:47:59.853Z,7.40
2023-02-11T17:50:37.004Z,7.40
2023-02-11T17:53:06.859Z,7.30
2023-02-11T17:55:38.640Z,7.30
2023-02-11T17:58:06.515Z,7.40
2023-02-11T18:00:39.706Z,7.30
2023-02-11T18:03:15.780Z,7.30
2023-02-11T18:05:43.183Z,7.30
2023-02-11T18:08:10.356Z,7.30
2023-02-11T18:10:41.964Z,7.30
2023-02-11T18:13:11.668Z,7.30
2023-02-11T18:15:42.012Z,7.30
2023-02-11T18:18:12.549Z,7.30
2023-02-11T18:20:42.785Z,7.30
2023-02-11T18:23:11.115Z,7.30
2023-02-11T18:25:42.644Z,7.30
2023-02-11T18:28:13.039Z,7.30
2023-02-11T18:30:40.391Z,7.30
2023-02-11T18:33:12.039Z,7.30
2023-02-11T18:35:43.590Z,7.30
2023-02-11T18:38:10.757Z,7.20
2023-02-11T18:40:41.214Z,7.20
2023-02-11T18:43:08.520Z,7.20
2023-02-11T18:45:35.705Z,7.20
2023-02-11T18:48:05.447Z,7.20
2023-02-11T18:50:32.582Z,7.20
2023-02-11T18:52:59.718Z,7.20
2023-02-11T18:55:27.213Z,7.20
2023-02-11T18:57:55.173Z,7.20
2023-02-11T19:00:23.079Z,7.10
2023-02-11T19:02:50.476Z,7.20
2023-02-11T19:05:17.676Z,7.20
2023-02-11T19:07:44.884Z,7.20
2023-02-11T19:10:15.011Z,7.20
2023-02-11T19:12:44.571Z,7.20
2023-02-11T19:15:11.799Z,7.10
2023-02-11T19:17:38.949Z,7.10
2023-02-11T19:20:07.315Z,7.10
2023-02-11T19:22:34.585Z,7.10
2023-02-11T19:25:03.823Z,7.10
2023-02-11T19:27:30.990Z,7.10
2023-02-11T19:29:58.151Z,7.10
2023-02-11T19:32:25.363Z,7.10
2023-02-11T19:34:53.233Z,7.10
2023-02-11T19:37:20.445Z,7.10
2023-02-11T19:39:47.928Z,7.10
2023-02-11T19:42:15.056Z,7.10
2023-02-11T19:44:42.203Z,7.10
2023-02-11T19:47:10.552Z,7.10
2023-02-11T19:49:37.619Z,7.10
2023-02-11T19:52:05.353Z,7.10
2023-02-11T19:54:32.727Z,7.10
2023-02-11T19:57:00.358Z,7.10
2023-02-11T19:59:27.858Z,7.20
2023-02-11T20:01:55.014Z,7.20
2023-02-11T20:04:23.963Z,7.20
2023-02-11T20:06:51.578Z,7.10
2023-02-11T20:09:19.135Z,7.10
2023-02-11T20:11:46.540Z,7.10
2023-02-11T20:14:17.452Z,7.10
2023-02-11T20:16:49.040Z,7.10
2023-02-11T20:19:21.861Z,7.10
2023-02-11T20:21:56.019Z,7.10
2023-02-11T20:24:24.574Z,7.00
2023-02-11T20:26:55.745Z,7.10
2023-02-11T20:29:24.790Z,7.10
2023-02-11T20:31:52.131Z,7.10
2023-02-11T20:34:19.407Z,7.10
2023-02-11T20:36:52.108Z,7.20
2023-02-11T20:39:22.404Z,7.10
2023-02-11T20:41:50.732Z,7.00
2023-02-11T20:44:18.079Z,7.00
2023-02-11T20:46:48.721Z,7.00
2023-02-11T20:49:20.932Z,7.00
2023-02-11T20:51:49.114Z,7.00
2023-02-11T20:54:19.004Z,7.00
2023-02-11T20:56:48.433Z,7.00
2023-02-11T20:59:16.919Z,7.10
2023-02-11T21:01:50.906Z,7.10
2023-02-11T21:04:28.056Z,7.00
2023-02-11T21:06:59.611Z,7.00
2023-02-11T21:09:34.342Z,7.00
2023-02-11T21:12:02.499Z,7.00
2023-02-11T21:14:30.490Z,7.00
2023-02-11T21:17:06.524Z,7.00
2023-02-11T21:19:35.984Z,7.00
2023-02-11T21:22:03.406Z,7.00
2023-02-11T21:24:33.134Z,6.90
2023-02-11T21:27:00.709Z,7.00
2023-02-11T21:29:28.073Z,6.90
2023-02-11T21:31:58.023Z,7.00
2023-02-11T21:34:27.702Z,7.00
2023-02-11T21:36:55.021Z,7.00
2023-02-11T21:39:22.408Z,6.90
2023-02-11T21:41:53.392Z,7.00
2023-02-11T21:44:20.548Z,7.00
2023-02-11T21:46:48.268Z,7.00
2023-02-11T21:49:15.462Z,6.90
2023-02-11T21:51:42.795Z,6.90
2023-02-11T21:54:11.648Z,6.90
2023-02-11T21:56:38.781Z,7.00
2023-02-11T21:59:05.944Z,7.00
2023-02-11T22:01:35.542Z,7.00
2023-02-11T22:04:03.142Z,7.00
2023-02-11T22:06:34.047Z,7.00
2023-02-11T22:09:09.689Z,7.00
2023-02-11T22:11:37.159Z,7.00
2023-02-11T22:14:05.188Z,7.00
2023-02-11T22:16:32.660Z,7.00
2023-02-11T22:19:02.326Z,7.00
2023-02-11T22:21:29.693Z,6.90
2023-02-11T22:23:57.370Z,6.90
2023-02-11T22:26:26.988Z,6.80
2023-02-11T22:28:55.412Z,6.80
2023-02-11T22:31:30.045Z,6.90
2023-02-11T22:33:58.021Z,6.90
2023-02-11T22:36:32.363Z,6.90
2023-02-11T22:39:12.232Z,6.90
2023-02-11T22:41:44.995Z,6.90
2023-02-11T22:44:12.881Z,6.90
2023-02-11T22:46:40.545Z,6.90
2023-02-11T22:49:07.865Z,7.00
2023-02-11T22:51:35.019Z,7.10
2023-02-11T22:54:05.876Z,7.10
2023-02-11T22:56:34.707Z,7.10
2023-02-11T22:59:05.661Z,7.00
2023-02-11T23:01:33.016Z,7.10
2023-02-11T23:04:06.005Z,7.10
2023-02-11T23:06:33.922Z,7.10
2023-02-11T23:09:08.614Z,7.10
2023-02-11T23:11:36.692Z,7.10
2023-02-11T23:14:08.724Z,7.00
2023-02-11T23:16:36.116Z,7.00
2023-02-11T23:19:09.966Z,7.00
2023-02-11T23:21:40.362Z,7.10
2023-02-11T23:24:14.488Z,7.00
2023-02-11T23:26:44.758Z,7.00
2023-02-11T23:29:12.080Z,6.90
2023-02-11T23:31:43.580Z,6.90
2023-02-11T23:34:11.354Z,6.90
2023-02-11T23:36:38.712Z,6.90
2023-02-11T23:39:06.277Z,6.90
2023-02-11T23:41:33.442Z,6.80
2023-02-11T23:44:00.626Z,6.80
2023-02-11T23:46:28.550Z,6.90
2023-02-11T23:48:56.124Z,6.90
2023-02-11T23:51:24.015Z,7.00
2023-02-11T23:53:52.704Z,7.00
2023-02-11T23:56:23.766Z,6.90
2023-02-11T23:58:53.543Z,6.80
